Estación Meteorológica Peña el Pijo (Robertgarden) [ 09/24/17 17:33:51 CEST ]

Fecha Hora Presion(HPa) Temp (°C) Humedad % Rocio (°C) Viento ( m/s) Direccion Lluvia 1Hora(mm) Lluvia 24H(mm) LLuvia Total(mm)
2017-Apr-14 01:01:59 1012.000 11.8 51 2.0         1357.67
2017-Apr-14 02:01:47 1012.000 9.9 58 2.0         1357.67
2017-Apr-14 03:01:40 1011.700 8.9 61 1.8         1357.67
2017-Apr-14 04:01:41 1011.400 8.2 64 1.8         1357.67
2017-Apr-14 05:06:10 1011.000 8.8 67 3.0         1357.67
2017-Apr-14 06:02:01 1010.600 9.9 63 3.2         1357.67
2017-Apr-14 07:02:01 1010.800 8.8 65 2.6         1357.67
2017-Apr-14 08:01:55 1011.200 8.1 67 2.3         1357.67
2017-Apr-14 09:01:51 1011.300 11.6 66 5.4         1357.67
2017-Apr-14 10:01:42 1011.000 16.5 52 6.6         1357.67
2017-Apr-14 11:01:52 1010.600 23.4 37 7.8         1357.67
2017-Apr-14 12:01:45 1010.900 26.3 26 5.0         1357.67
2017-Apr-14 13:01:46 1010.600 27.3 24 4.8 1.7 NW     1357.67
2017-Apr-14 14:01:56 1010.000 27.3 23 4.2         1357.67
2017-Apr-14 15:01:41 1009.600 27.6 23 4.4         1357.67
2017-Apr-14 16:01:47 1009.200 28.1 21 3.7         1357.67
2017-Apr-14 17:01:35 1008.700 26.1 24 3.7         1357.67
2017-Apr-14 18:01:50 1008.500 23.3 29 4.2         1357.67
2017-Apr-14 19:01:35 1008.600 25.9 27 5.3         1357.67
2017-Apr-14 20:01:51 1009.200 21.9 32 4.4         1357.67
2017-Apr-14 21:01:35 1009.900 19.2 37 4.2         1357.67
2017-Apr-14 22:01:33 1010.900 15.7 45 3.7         1357.67
2017-Apr-14 23:01:56 1011.500 12.8 52 3.1         1357.67

Temperatura Máxima:28°    Temperatura Mínima:
Presión Máxima:1012.000 Hpa    Presión Mínima:1008.500 Hpa


Volver